sensor_id;sensor_type;location;lat;lon;timestamp;P1;durP1;ratioP1;P2;durP2;ratioP2
54679;SDS011;40578;53.178;5.846;2023-09-19T00:00:37;7.30;;;2.30;;
54679;SDS011;40578;53.178;5.846;2023-09-19T00:03:03;9.23;;;1.70;;
54679;SDS011;40578;53.178;5.846;2023-09-19T00:05:33;10.80;;;2.20;;
54679;SDS011;40578;53.178;5.846;2023-09-19T00:08:00;10.18;;;2.35;;
54679;SDS011;40578;53.178;5.846;2023-09-19T00:10:26;7.13;;;2.30;;
54679;SDS011;40578;53.178;5.846;2023-09-19T00:12:56;9.68;;;2.47;;
54679;SDS011;40578;53.178;5.846;2023-09-19T00:15:27;13.75;;;2.60;;
54679;SDS011;40578;53.178;5.846;2023-09-19T00:17:57;8.50;;;2.63;;
54679;SDS011;40578;53.178;5.846;2023-09-19T00:20:22;9.30;;;2.63;;
54679;SDS011;40578;53.178;5.846;2023-09-19T00:25:17;12.35;;;2.38;;
54679;SDS011;40578;53.178;5.846;2023-09-19T00:27:43;12.32;;;2.67;;
54679;SDS011;40578;53.178;5.846;2023-09-19T00:30:10;12.90;;;2.63;;
54679;SDS011;40578;53.178;5.846;2023-09-19T00:32:43;10.55;;;2.47;;
54679;SDS011;40578;53.178;5.846;2023-09-19T00:35:09;12.77;;;2.80;;
54679;SDS011;40578;53.178;5.846;2023-09-19T00:37:35;12.75;;;2.65;;
54679;SDS011;40578;53.178;5.846;2023-09-19T00:40:03;7.65;;;2.22;;
54679;SDS011;40578;53.178;5.846;2023-09-19T00:42:31;6.75;;;1.90;;
54679;SDS011;40578;53.178;5.846;2023-09-19T00:44:56;12.27;;;2.20;;
54679;SDS011;40578;53.178;5.846;2023-09-19T00:47:22;9.27;;;2.07;;
54679;SDS011;40578;53.178;5.846;2023-09-19T00:49:48;7.33;;;2.10;;
54679;SDS011;40578;53.178;5.846;2023-09-19T00:52:14;10.70;;;2.10;;
54679;SDS011;40578;53.178;5.846;2023-09-19T00:54:40;5.85;;;1.80;;
54679;SDS011;40578;53.178;5.846;2023-09-19T00:57:06;9.43;;;1.80;;
54679;SDS011;40578;53.178;5.846;2023-09-19T01:02:00;7.05;;;1.67;;
54679;SDS011;40578;53.178;5.846;2023-09-19T01:04:27;7.38;;;1.73;;
54679;SDS011;40578;53.178;5.846;2023-09-19T01:06:53;8.47;;;2.00;;
54679;SDS011;40578;53.178;5.846;2023-09-19T01:09:19;9.82;;;1.80;;
54679;SDS011;40578;53.178;5.846;2023-09-19T01:11:46;8.27;;;2.08;;
54679;SDS011;40578;53.178;5.846;2023-09-19T01:17:27;8.32;;;1.83;;
54679;SDS011;40578;53.178;5.846;2023-09-19T01:20:07;8.50;;;1.92;;
54679;SDS011;40578;53.178;5.846;2023-09-19T01:22:53;10.93;;;2.20;;
54679;SDS011;40578;53.178;5.846;2023-09-19T01:28:20;5.47;;;1.55;;
54679;SDS011;40578;53.178;5.846;2023-09-19T01:31:09;7.78;;;1.83;;
54679;SDS011;40578;53.178;5.846;2023-09-19T01:33:56;7.25;;;1.83;;
54679;SDS011;40578;53.178;5.846;2023-09-19T01:36:27;13.40;;;2.80;;
54679;SDS011;40578;53.178;5.846;2023-09-19T01:39:04;8.50;;;2.10;;
54679;SDS011;40578;53.178;5.846;2023-09-19T01:41:38;10.27;;;2.78;;
54679;SDS011;40578;53.178;5.846;2023-09-19T01:44:24;9.05;;;2.13;;
54679;SDS011;40578;53.178;5.846;2023-09-19T01:47:33;9.73;;;2.35;;
54679;SDS011;40578;53.178;5.846;2023-09-19T01:52:57;8.25;;;1.98;;
54679;SDS011;40578;53.178;5.846;2023-09-19T01:55:29;7.68;;;2.10;;
54679;SDS011;40578;53.178;5.846;2023-09-19T01:58:06;13.57;;;1.85;;
54679;SDS011;40578;53.178;5.846;2023-09-19T02:00:37;11.35;;;2.33;;
54679;SDS011;40578;53.178;5.846;2023-09-19T02:03:07;8.27;;;2.17;;
54679;SDS011;40578;53.178;5.846;2023-09-19T02:05:34;10.52;;;2.13;;
54679;SDS011;40578;53.178;5.846;2023-09-19T02:08:00;7.80;;;1.80;;
54679;SDS011;40578;53.178;5.846;2023-09-19T02:10:26;11.20;;;2.42;;
54679;SDS011;40578;53.178;5.846;2023-09-19T02:12:51;9.40;;;1.63;;
54679;SDS011;40578;53.178;5.846;2023-09-19T02:15:18;6.60;;;1.70;;
54679;SDS011;40578;53.178;5.846;2023-09-19T02:17:43;9.73;;;1.88;;
54679;SDS011;40578;53.178;5.846;2023-09-19T02:20:11;8.48;;;1.98;;
54679;SDS011;40578;53.178;5.846;2023-09-19T02:22:38;8.38;;;1.88;;
54679;SDS011;40578;53.178;5.846;2023-09-19T02:25:04;6.38;;;2.33;;
54679;SDS011;40578;53.178;5.846;2023-09-19T02:27:30;8.50;;;2.17;;
54679;SDS011;40578;53.178;5.846;2023-09-19T02:29:56;7.67;;;1.83;;
54679;SDS011;40578;53.178;5.846;2023-09-19T02:32:21;7.43;;;1.60;;
54679;SDS011;40578;53.178;5.846;2023-09-19T02:34:48;7.93;;;2.30;;
54679;SDS011;40578;53.178;5.846;2023-09-19T02:37:13;7.77;;;1.97;;
54679;SDS011;40578;53.178;5.846;2023-09-19T02:39:41;7.15;;;1.63;;
54679;SDS011;40578;53.178;5.846;2023-09-19T02:42:07;7.22;;;1.90;;
54679;SDS011;40578;53.178;5.846;2023-09-19T02:44:33;9.67;;;1.90;;
54679;SDS011;40578;53.178;5.846;2023-09-19T02:46:59;8.00;;;1.60;;
54679;SDS011;40578;53.178;5.846;2023-09-19T02:49:24;5.07;;;1.70;;
54679;SDS011;40578;53.178;5.846;2023-09-19T02:51:50;8.50;;;2.57;;
54679;SDS011;40578;53.178;5.846;2023-09-19T02:54:16;9.65;;;2.05;;
54679;SDS011;40578;53.178;5.846;2023-09-19T02:56:43;10.40;;;1.80;;
54679;SDS011;40578;53.178;5.846;2023-09-19T02:59:09;9.20;;;1.90;;
54679;SDS011;40578;53.178;5.846;2023-09-19T03:01:35;9.65;;;1.90;;
54679;SDS011;40578;53.178;5.846;2023-09-19T03:04:02;14.10;;;2.55;;
54679;SDS011;40578;53.178;5.846;2023-09-19T03:06:33;7.20;;;2.20;;
54679;SDS011;40578;53.178;5.846;2023-09-19T03:08:59;16.90;;;2.07;;
54679;SDS011;40578;53.178;5.846;2023-09-19T03:11:25;5.47;;;1.80;;
54679;SDS011;40578;53.178;5.846;2023-09-19T03:13:53;8.73;;;2.13;;
54679;SDS011;40578;53.178;5.846;2023-09-19T03:16:20;11.52;;;2.38;;
54679;SDS011;40578;53.178;5.846;2023-09-19T03:18:50;10.95;;;2.03;;
54679;SDS011;40578;53.178;5.846;2023-09-19T03:21:16;14.90;;;2.67;;
54679;SDS011;40578;53.178;5.846;2023-09-19T03:23:42;8.15;;;2.15;;
54679;SDS011;40578;53.178;5.846;2023-09-19T03:26:12;8.82;;;1.48;;
54679;SDS011;40578;53.178;5.846;2023-09-19T03:28:39;10.73;;;2.40;;
54679;SDS011;40578;53.178;5.846;2023-09-19T03:31:06;9.25;;;1.55;;
54679;SDS011;40578;53.178;5.846;2023-09-19T03:33:32;8.32;;;1.70;;
54679;SDS011;40578;53.178;5.846;2023-09-19T03:35:59;6.55;;;1.73;;
54679;SDS011;40578;53.178;5.846;2023-09-19T03:38:26;10.23;;;2.08;;
54679;SDS011;40578;53.178;5.846;2023-09-19T03:40:53;8.25;;;2.17;;
54679;SDS011;40578;53.178;5.846;2023-09-19T03:43:19;9.07;;;1.83;;
54679;SDS011;40578;53.178;5.846;2023-09-19T03:45:45;10.30;;;1.93;;
54679;SDS011;40578;53.178;5.846;2023-09-19T03:48:12;10.63;;;1.60;;
54679;SDS011;40578;53.178;5.846;2023-09-19T03:50:38;6.10;;;1.50;;
54679;SDS011;40578;53.178;5.846;2023-09-19T03:53:04;12.60;;;1.92;;
54679;SDS011;40578;53.178;5.846;2023-09-19T03:55:32;10.38;;;2.10;;
54679;SDS011;40578;53.178;5.846;2023-09-19T03:57:58;8.57;;;2.30;;
54679;SDS011;40578;53.178;5.846;2023-09-19T04:00:23;8.43;;;2.00;;
54679;SDS011;40578;53.178;5.846;2023-09-19T04:02:51;10.32;;;2.35;;
54679;SDS011;40578;53.178;5.846;2023-09-19T04:05:17;10.32;;;2.00;;
54679;SDS011;40578;53.178;5.846;2023-09-19T04:07:43;10.50;;;2.47;;
54679;SDS011;40578;53.178;5.846;2023-09-19T04:10:09;11.87;;;2.37;;
54679;SDS011;40578;53.178;5.846;2023-09-19T04:12:40;9.88;;;2.58;;
54679;SDS011;40578;53.178;5.846;2023-09-19T04:15:05;8.25;;;1.90;;
54679;SDS011;40578;53.178;5.846;2023-09-19T04:17:32;7.88;;;2.05;;
54679;SDS011;40578;53.178;5.846;2023-09-19T04:19:58;9.82;;;2.13;;
54679;SDS011;40578;53.178;5.846;2023-09-19T04:22:24;10.20;;;1.80;;
54679;SDS011;40578;53.178;5.846;2023-09-19T04:24:50;8.97;;;2.10;;
54679;SDS011;40578;53.178;5.846;2023-09-19T04:27:16;9.83;;;2.17;;
54679;SDS011;40578;53.178;5.846;2023-09-19T04:29:41;11.70;;;2.60;;
54679;SDS011;40578;53.178;5.846;2023-09-19T04:32:07;12.90;;;2.57;;
54679;SDS011;40578;53.178;5.846;2023-09-19T04:34:34;11.07;;;2.45;;
54679;SDS011;40578;53.178;5.846;2023-09-19T04:37:00;6.60;;;1.70;;
54679;SDS011;40578;53.178;5.846;2023-09-19T04:39:27;15.43;;;2.30;;
54679;SDS011;40578;53.178;5.846;2023-09-19T04:41:53;5.03;;;1.58;;
54679;SDS011;40578;53.178;5.846;2023-09-19T04:44:20;11.70;;;2.15;;
54679;SDS011;40578;53.178;5.846;2023-09-19T04:46:46;7.43;;;2.20;;
54679;SDS011;40578;53.178;5.846;2023-09-19T04:49:12;10.10;;;2.25;;
54679;SDS011;40578;53.178;5.846;2023-09-19T04:51:38;6.13;;;1.60;;
54679;SDS011;40578;53.178;5.846;2023-09-19T04:54:05;5.78;;;1.65;;
54679;SDS011;40578;53.178;5.846;2023-09-19T04:56:31;13.55;;;2.40;;
54679;SDS011;40578;53.178;5.846;2023-09-19T04:58:57;11.17;;;1.80;;
54679;SDS011;40578;53.178;5.846;2023-09-19T05:01:23;9.85;;;2.10;;
54679;SDS011;40578;53.178;5.846;2023-09-19T05:03:50;7.07;;;2.08;;
54679;SDS011;40578;53.178;5.846;2023-09-19T05:06:19;11.50;;;2.13;;
54679;SDS011;40578;53.178;5.846;2023-09-19T05:08:48;7.57;;;1.77;;
54679;SDS011;40578;53.178;5.846;2023-09-19T05:11:20;7.65;;;1.73;;
54679;SDS011;40578;53.178;5.846;2023-09-19T05:13:47;6.60;;;2.10;;
54679;SDS011;40578;53.178;5.846;2023-09-19T05:16:18;5.07;;;1.75;;
54679;SDS011;40578;53.178;5.846;2023-09-19T05:18:43;8.23;;;1.77;;
54679;SDS011;40578;53.178;5.846;2023-09-19T05:21:09;9.32;;;2.22;;
54679;SDS011;40578;53.178;5.846;2023-09-19T05:23:35;8.43;;;1.77;;
54679;SDS011;40578;53.178;5.846;2023-09-19T05:26:02;19.85;;;2.50;;
54679;SDS011;40578;53.178;5.846;2023-09-19T05:28:29;10.38;;;2.03;;
54679;SDS011;40578;53.178;5.846;2023-09-19T05:30:54;5.93;;;2.33;;
54679;SDS011;40578;53.178;5.846;2023-09-19T05:33:20;10.68;;;1.83;;
54679;SDS011;40578;53.178;5.846;2023-09-19T05:35:49;7.20;;;1.57;;
54679;SDS011;40578;53.178;5.846;2023-09-19T05:38:15;10.82;;;1.67;;
54679;SDS011;40578;53.178;5.846;2023-09-19T05:40:44;7.75;;;1.85;;
54679;SDS011;40578;53.178;5.846;2023-09-19T05:43:10;7.25;;;1.55;;
54679;SDS011;40578;53.178;5.846;2023-09-19T05:45:36;9.83;;;2.27;;
54679;SDS011;40578;53.178;5.846;2023-09-19T05:48:09;6.97;;;1.75;;
54679;SDS011;40578;53.178;5.846;2023-09-19T05:50:39;10.18;;;1.85;;
54679;SDS011;40578;53.178;5.846;2023-09-19T05:53:05;7.68;;;1.67;;
54679;SDS011;40578;53.178;5.846;2023-09-19T05:55:31;9.38;;;1.90;;
54679;SDS011;40578;53.178;5.846;2023-09-19T05:57:57;6.70;;;2.10;;
54679;SDS011;40578;53.178;5.846;2023-09-19T06:00:23;11.55;;;1.60;;
54679;SDS011;40578;53.178;5.846;2023-09-19T06:02:51;11.82;;;2.13;;
54679;SDS011;40578;53.178;5.846;2023-09-19T06:05:17;10.52;;;1.70;;
54679;SDS011;40578;53.178;5.846;2023-09-19T06:07:43;10.27;;;2.47;;
54679;SDS011;40578;53.178;5.846;2023-09-19T06:10:09;7.07;;;1.70;;
54679;SDS011;40578;53.178;5.846;2023-09-19T06:12:41;7.37;;;1.40;;
54679;SDS011;40578;53.178;5.846;2023-09-19T06:15:14;11.10;;;2.03;;
54679;SDS011;40578;53.178;5.846;2023-09-19T06:17:42;11.90;;;1.75;;
54679;SDS011;40578;53.178;5.846;2023-09-19T06:20:08;9.90;;;1.60;;
54679;SDS011;40578;53.178;5.846;2023-09-19T06:22:40;9.05;;;1.75;;
54679;SDS011;40578;53.178;5.846;2023-09-19T06:25:07;8.32;;;2.17;;
54679;SDS011;40578;53.178;5.846;2023-09-19T06:27:36;5.68;;;1.52;;
54679;SDS011;40578;53.178;5.846;2023-09-19T06:30:02;7.10;;;1.67;;
54679;SDS011;40578;53.178;5.846;2023-09-19T06:32:28;8.40;;;2.13;;
54679;SDS011;40578;53.178;5.846;2023-09-19T06:34:53;9.93;;;2.07;;
54679;SDS011;40578;53.178;5.846;2023-09-19T06:37:20;8.70;;;2.03;;
54679;SDS011;40578;53.178;5.846;2023-09-19T06:42:14;5.90;;;1.50;;
54679;SDS011;40578;53.178;5.846;2023-09-19T06:44:42;8.98;;;1.60;;
54679;SDS011;40578;53.178;5.846;2023-09-19T06:47:08;8.48;;;1.55;;
54679;SDS011;40578;53.178;5.846;2023-09-19T06:52:00;9.55;;;1.60;;
54679;SDS011;40578;53.178;5.846;2023-09-19T06:56:56;7.53;;;1.50;;
54679;SDS011;40578;53.178;5.846;2023-09-19T06:59:23;9.73;;;1.83;;
54679;SDS011;40578;53.178;5.846;2023-09-19T07:01:49;7.83;;;1.90;;
54679;SDS011;40578;53.178;5.846;2023-09-19T07:04:16;11.55;;;1.55;;
54679;SDS011;40578;53.178;5.846;2023-09-19T07:06:44;10.63;;;1.63;;
54679;SDS011;40578;53.178;5.846;2023-09-19T07:09:14;8.35;;;1.90;;
54679;SDS011;40578;53.178;5.846;2023-09-19T07:11:40;11.10;;;1.95;;
54679;SDS011;40578;53.178;5.846;2023-09-19T07:16:36;7.78;;;2.03;;
54679;SDS011;40578;53.178;5.846;2023-09-19T07:19:04;9.95;;;2.20;;
54679;SDS011;40578;53.178;5.846;2023-09-19T07:21:30;5.82;;;1.38;;
54679;SDS011;40578;53.178;5.846;2023-09-19T07:23:59;8.85;;;1.85;;
54679;SDS011;40578;53.178;5.846;2023-09-19T07:26:25;15.73;;;1.80;;
54679;SDS011;40578;53.178;5.846;2023-09-19T07:28:52;10.57;;;2.42;;
54679;SDS011;40578;53.178;5.846;2023-09-19T07:31:18;7.00;;;1.45;;
54679;SDS011;40578;53.178;5.846;2023-09-19T07:33:44;10.63;;;2.00;;
54679;SDS011;40578;53.178;5.846;2023-09-19T07:36:10;9.73;;;1.50;;
54679;SDS011;40578;53.178;5.846;2023-09-19T07:38:38;7.90;;;1.95;;
54679;SDS011;40578;53.178;5.846;2023-09-19T07:41:08;9.43;;;1.77;;
54679;SDS011;40578;53.178;5.846;2023-09-19T07:43:34;7.18;;;1.52;;
54679;SDS011;40578;53.178;5.846;2023-09-19T07:46:04;9.15;;;2.80;;
54679;SDS011;40578;53.178;5.846;2023-09-19T07:48:32;7.43;;;2.10;;
54679;SDS011;40578;53.178;5.846;2023-09-19T07:51:01;8.70;;;2.53;;
54679;SDS011;40578;53.178;5.846;2023-09-19T07:53:28;9.25;;;1.98;;
54679;SDS011;40578;53.178;5.846;2023-09-19T07:56:01;6.93;;;1.60;;
54679;SDS011;40578;53.178;5.846;2023-09-19T07:58:30;10.32;;;2.35;;
54679;SDS011;40578;53.178;5.846;2023-09-19T08:01:01;8.25;;;2.03;;
54679;SDS011;40578;53.178;5.846;2023-09-19T08:03:31;6.93;;;1.77;;
54679;SDS011;40578;53.178;5.846;2023-09-19T08:06:05;13.68;;;2.25;;
54679;SDS011;40578;53.178;5.846;2023-09-19T08:08:31;8.80;;;1.67;;
54679;SDS011;40578;53.178;5.846;2023-09-19T08:10:59;9.82;;;2.15;;
54679;SDS011;40578;53.178;5.846;2023-09-19T08:13:26;10.07;;;2.30;;
54679;SDS011;40578;53.178;5.846;2023-09-19T08:15:52;7.23;;;2.10;;
54679;SDS011;40578;53.178;5.846;2023-09-19T08:18:18;8.63;;;2.15;;
54679;SDS011;40578;53.178;5.846;2023-09-19T08:20:50;8.48;;;2.20;;
54679;SDS011;40578;53.178;5.846;2023-09-19T08:23:17;7.88;;;1.95;;
54679;SDS011;40578;53.178;5.846;2023-09-19T08:25:45;6.32;;;1.58;;
54679;SDS011;40578;53.178;5.846;2023-09-19T08:30:39;9.15;;;2.35;;
54679;SDS011;40578;53.178;5.846;2023-09-19T08:33:06;8.52;;;2.17;;
54679;SDS011;40578;53.178;5.846;2023-09-19T08:35:32;9.45;;;2.17;;
54679;SDS011;40578;53.178;5.846;2023-09-19T08:37:58;8.48;;;2.35;;
54679;SDS011;40578;53.178;5.846;2023-09-19T08:40:29;7.18;;;1.85;;
54679;SDS011;40578;53.178;5.846;2023-09-19T08:42:58;7.75;;;2.08;;
54679;SDS011;40578;53.178;5.846;2023-09-19T08:45:25;10.15;;;2.15;;
54679;SDS011;40578;53.178;5.846;2023-09-19T08:50:56;9.15;;;2.10;;
54679;SDS011;40578;53.178;5.846;2023-09-19T08:56:11;8.30;;;1.92;;
54679;SDS011;40578;53.178;5.846;2023-09-19T08:58:46;9.98;;;2.22;;
54679;SDS011;40578;53.178;5.846;2023-09-19T09:01:23;10.45;;;2.08;;
54679;SDS011;40578;53.178;5.846;2023-09-19T09:03:52;6.85;;;2.42;;
54679;SDS011;40578;53.178;5.846;2023-09-19T09:06:20;17.17;;;2.78;;
54679;SDS011;40578;53.178;5.846;2023-09-19T09:08:46;9.10;;;2.03;;
54679;SDS011;40578;53.178;5.846;2023-09-19T09:11:15;8.98;;;2.55;;
54679;SDS011;40578;53.178;5.846;2023-09-19T09:13:43;11.40;;;1.88;;
54679;SDS011;40578;53.178;5.846;2023-09-19T09:16:13;11.27;;;2.83;;
54679;SDS011;40578;53.178;5.846;2023-09-19T09:18:43;5.57;;;1.80;;
54679;SDS011;40578;53.178;5.846;2023-09-19T09:21:10;10.90;;;1.85;;
54679;SDS011;40578;53.178;5.846;2023-09-19T09:23:36;9.80;;;2.00;;
54679;SDS011;40578;53.178;5.846;2023-09-19T09:26:02;9.47;;;2.13;;
54679;SDS011;40578;53.178;5.846;2023-09-19T09:28:28;9.87;;;2.53;;
54679;SDS011;40578;53.178;5.846;2023-09-19T09:30:56;16.27;;;2.92;;
54679;SDS011;40578;53.178;5.846;2023-09-19T09:35:59;14.35;;;2.72;;
54679;SDS011;40578;53.178;5.846;2023-09-19T09:40:53;7.38;;;2.15;;
54679;SDS011;40578;53.178;5.846;2023-09-19T09:43:34;10.90;;;2.30;;
54679;SDS011;40578;53.178;5.846;2023-09-19T09:46:17;10.07;;;2.65;;
54679;SDS011;40578;53.178;5.846;2023-09-19T09:49:09;11.50;;;2.58;;
54679;SDS011;40578;53.178;5.846;2023-09-19T09:51:51;8.63;;;2.45;;
54679;SDS011;40578;53.178;5.846;2023-09-19T09:54:32;13.57;;;2.58;;
54679;SDS011;40578;53.178;5.846;2023-09-19T09:57:03;9.82;;;2.10;;
54679;SDS011;40578;53.178;5.846;2023-09-19T10:02:28;12.90;;;3.45;;
54679;SDS011;40578;53.178;5.846;2023-09-19T10:04:57;13.57;;;2.33;;
54679;SDS011;40578;53.178;5.846;2023-09-19T10:07:39;11.68;;;2.30;;
54679;SDS011;40578;53.178;5.846;2023-09-19T10:10:14;9.65;;;2.50;;
54679;SDS011;40578;53.178;5.846;2023-09-19T10:12:55;10.50;;;2.60;;
54679;SDS011;40578;53.178;5.846;2023-09-19T10:15:27;13.73;;;3.28;;
54679;SDS011;40578;53.178;5.846;2023-09-19T10:17:58;12.63;;;2.78;;
54679;SDS011;40578;53.178;5.846;2023-09-19T10:20:26;11.95;;;2.42;;
54679;SDS011;40578;53.178;5.846;2023-09-19T10:23:08;11.68;;;2.95;;
54679;SDS011;40578;53.178;5.846;2023-09-19T10:25:41;9.93;;;2.42;;
54679;SDS011;40578;53.178;5.846;2023-09-19T10:28:08;14.05;;;2.83;;
54679;SDS011;40578;53.178;5.846;2023-09-19T10:30:42;8.73;;;2.50;;
54679;SDS011;40578;53.178;5.846;2023-09-19T10:33:13;10.75;;;2.40;;
54679;SDS011;40578;53.178;5.846;2023-09-19T10:35:45;9.93;;;2.65;;
54679;SDS011;40578;53.178;5.846;2023-09-19T10:38:13;11.75;;;2.72;;
54679;SDS011;40578;53.178;5.846;2023-09-19T10:40:39;10.93;;;2.78;;
54679;SDS011;40578;53.178;5.846;2023-09-19T10:43:11;10.93;;;2.72;;
54679;SDS011;40578;53.178;5.846;2023-09-19T10:45:38;11.43;;;2.45;;
54679;SDS011;40578;53.178;5.846;2023-09-19T10:48:05;13.00;;;3.45;;
54679;SDS011;40578;53.178;5.846;2023-09-19T10:50:51;11.50;;;2.80;;
54679;SDS011;40578;53.178;5.846;2023-09-19T10:53:24;11.73;;;3.00;;
54679;SDS011;40578;53.178;5.846;2023-09-19T10:55:55;11.32;;;3.05;;
54679;SDS011;40578;53.178;5.846;2023-09-19T10:58:28;12.23;;;3.63;;
54679;SDS011;40578;53.178;5.846;2023-09-19T11:00:59;13.07;;;4.00;;
54679;SDS011;40578;53.178;5.846;2023-09-19T11:03:37;11.45;;;3.72;;
54679;SDS011;40578;53.178;5.846;2023-09-19T11:30:49;9.90;;;3.40;;
54679;SDS011;40578;53.178;5.846;2023-09-19T11:33:19;7.97;;;2.72;;
54679;SDS011;40578;53.178;5.846;2023-09-19T11:43:47;10.25;;;3.67;;
54679;SDS011;40578;53.178;5.846;2023-09-19T11:46:17;12.55;;;3.25;;
54679;SDS011;40578;53.178;5.846;2023-09-19T11:48:49;12.70;;;3.35;;
54679;SDS011;40578;53.178;5.846;2023-09-19T11:51:23;11.65;;;4.60;;
54679;SDS011;40578;53.178;5.846;2023-09-19T11:53:57;14.52;;;5.00;;
54679;SDS011;40578;53.178;5.846;2023-09-19T11:56:27;16.88;;;5.25;;
54679;SDS011;40578;53.178;5.846;2023-09-19T11:58:54;14.65;;;5.43;;
54679;SDS011;40578;53.178;5.846;2023-09-19T12:01:30;15.05;;;6.38;;
54679;SDS011;40578;53.178;5.846;2023-09-19T12:03:58;12.32;;;5.35;;
54679;SDS011;40578;53.178;5.846;2023-09-19T12:06:25;16.15;;;5.97;;
54679;SDS011;40578;53.178;5.846;2023-09-19T12:08:52;18.13;;;6.22;;
54679;SDS011;40578;53.178;5.846;2023-09-19T12:11:22;14.48;;;6.90;;
54679;SDS011;40578;53.178;5.846;2023-09-19T12:13:50;15.63;;;5.38;;
54679;SDS011;40578;53.178;5.846;2023-09-19T12:16:16;11.18;;;4.97;;
54679;SDS011;40578;53.178;5.846;2023-09-19T12:18:46;10.35;;;4.50;;
54679;SDS011;40578;53.178;5.846;2023-09-19T12:21:22;10.45;;;4.05;;
54679;SDS011;40578;53.178;5.846;2023-09-19T12:24:04;9.65;;;3.80;;
54679;SDS011;40578;53.178;5.846;2023-09-19T12:26:41;11.32;;;3.67;;
54679;SDS011;40578;53.178;5.846;2023-09-19T12:32:02;9.35;;;3.65;;
54679;SDS011;40578;53.178;5.846;2023-09-19T12:34:29;10.95;;;3.55;;
54679;SDS011;40578;53.178;5.846;2023-09-19T12:39:44;10.15;;;3.15;;
54679;SDS011;40578;53.178;5.846;2023-09-19T12:42:22;9.88;;;3.08;;
54679;SDS011;40578;53.178;5.846;2023-09-19T12:44:52;12.07;;;3.08;;
54679;SDS011;40578;53.178;5.846;2023-09-19T12:47:22;9.65;;;3.05;;
54679;SDS011;40578;53.178;5.846;2023-09-19T12:52:45;10.10;;;3.53;;
54679;SDS011;40578;53.178;5.846;2023-09-19T12:55:20;9.75;;;3.90;;
54679;SDS011;40578;53.178;5.846;2023-09-19T13:00:41;8.10;;;3.58;;
54679;SDS011;40578;53.178;5.846;2023-09-19T13:03:16;8.40;;;3.47;;
54679;SDS011;40578;53.178;5.846;2023-09-19T13:08:23;8.35;;;2.75;;
54679;SDS011;40578;53.178;5.846;2023-09-19T13:13:34;8.38;;;2.75;;
54679;SDS011;40578;53.178;5.846;2023-09-19T13:16:02;11.88;;;2.58;;
54679;SDS011;40578;53.178;5.846;2023-09-19T13:18:41;10.48;;;3.33;;
54679;SDS011;40578;53.178;5.846;2023-09-19T13:21:10;7.97;;;2.70;;
54679;SDS011;40578;53.178;5.846;2023-09-19T13:23:41;7.03;;;2.78;;
54679;SDS011;40578;53.178;5.846;2023-09-19T13:26:10;7.88;;;2.80;;
54679;SDS011;40578;53.178;5.846;2023-09-19T13:28:37;8.82;;;2.70;;
54679;SDS011;40578;53.178;5.846;2023-09-19T13:31:04;7.28;;;2.78;;
54679;SDS011;40578;53.178;5.846;2023-09-19T13:33:29;7.17;;;2.57;;
54679;SDS011;40578;53.178;5.846;2023-09-19T13:35:55;6.38;;;2.20;;
54679;SDS011;40578;53.178;5.846;2023-09-19T13:38:22;9.55;;;2.42;;
54679;SDS011;40578;53.178;5.846;2023-09-19T13:40:48;7.55;;;2.53;;
54679;SDS011;40578;53.178;5.846;2023-09-19T13:43:17;8.02;;;2.50;;
54679;SDS011;40578;53.178;5.846;2023-09-19T13:45:43;7.80;;;2.70;;
54679;SDS011;40578;53.178;5.846;2023-09-19T13:48:09;8.73;;;2.53;;
54679;SDS011;40578;53.178;5.846;2023-09-19T13:50:36;8.35;;;2.65;;
54679;SDS011;40578;53.178;5.846;2023-09-19T13:53:07;7.75;;;2.60;;
54679;SDS011;40578;53.178;5.846;2023-09-19T13:55:34;8.93;;;2.70;;
54679;SDS011;40578;53.178;5.846;2023-09-19T13:57:59;8.93;;;2.37;;
54679;SDS011;40578;53.178;5.846;2023-09-19T14:00:25;8.07;;;2.67;;
54679;SDS011;40578;53.178;5.846;2023-09-19T14:05:17;6.32;;;2.42;;
54679;SDS011;40578;53.178;5.846;2023-09-19T14:07:43;6.55;;;2.53;;
54679;SDS011;40578;53.178;5.846;2023-09-19T14:12:37;9.10;;;3.15;;
54679;SDS011;40578;53.178;5.846;2023-09-19T14:15:05;11.00;;;3.88;;
54679;SDS011;40578;53.178;5.846;2023-09-19T14:17:33;10.13;;;3.65;;
54679;SDS011;40578;53.178;5.846;2023-09-19T14:19:58;8.50;;;2.93;;
54679;SDS011;40578;53.178;5.846;2023-09-19T14:22:24;11.27;;;3.77;;
54679;SDS011;40578;53.178;5.846;2023-09-19T14:24:50;12.60;;;3.70;;
54679;SDS011;40578;53.178;5.846;2023-09-19T14:29:42;7.20;;;3.05;;
54679;SDS011;40578;53.178;5.846;2023-09-19T14:32:08;9.95;;;3.08;;
54679;SDS011;40578;53.178;5.846;2023-09-19T14:34:34;11.53;;;3.80;;
54679;SDS011;40578;53.178;5.846;2023-09-19T14:37:01;9.55;;;3.05;;
54679;SDS011;40578;53.178;5.846;2023-09-19T14:39:27;11.57;;;3.73;;
54679;SDS011;40578;53.178;5.846;2023-09-19T14:41:53;11.55;;;4.05;;
54679;SDS011;40578;53.178;5.846;2023-09-19T14:44:19;10.30;;;3.60;;
54679;SDS011;40578;53.178;5.846;2023-09-19T14:46:45;11.97;;;3.27;;
54679;SDS011;40578;53.178;5.846;2023-09-19T14:49:10;8.33;;;3.07;;
54679;SDS011;40578;53.178;5.846;2023-09-19T14:51:37;9.52;;;3.38;;
54679;SDS011;40578;53.178;5.846;2023-09-19T14:54:05;9.20;;;3.08;;
54679;SDS011;40578;53.178;5.846;2023-09-19T14:56:33;11.95;;;3.60;;
54679;SDS011;40578;53.178;5.846;2023-09-19T14:58:58;12.05;;;2.92;;
54679;SDS011;40578;53.178;5.846;2023-09-19T15:01:24;12.55;;;3.58;;
54679;SDS011;40578;53.178;5.846;2023-09-19T15:03:50;12.00;;;3.07;;
54679;SDS011;40578;53.178;5.846;2023-09-19T15:06:15;16.93;;;4.60;;
54679;SDS011;40578;53.178;5.846;2023-09-19T15:08:45;12.80;;;3.72;;
54679;SDS011;40578;53.178;5.846;2023-09-19T15:11:16;14.02;;;3.42;;
54679;SDS011;40578;53.178;5.846;2023-09-19T15:13:43;10.02;;;3.00;;
54679;SDS011;40578;53.178;5.846;2023-09-19T15:16:09;14.38;;;3.88;;
54679;SDS011;40578;53.178;5.846;2023-09-19T15:18:43;13.30;;;4.40;;
54679;SDS011;40578;53.178;5.846;2023-09-19T15:21:12;12.65;;;2.97;;
54679;SDS011;40578;53.178;5.846;2023-09-19T15:23:39;13.68;;;3.70;;
54679;SDS011;40578;53.178;5.846;2023-09-19T15:26:06;16.80;;;4.40;;
54679;SDS011;40578;53.178;5.846;2023-09-19T15:28:39;12.52;;;3.17;;
54679;SDS011;40578;53.178;5.846;2023-09-19T15:31:06;16.30;;;4.43;;
54679;SDS011;40578;53.178;5.846;2023-09-19T15:33:35;14.65;;;3.88;;
54679;SDS011;40578;53.178;5.846;2023-09-19T15:38:56;13.48;;;3.97;;
54679;SDS011;40578;53.178;5.846;2023-09-19T15:41:22;18.60;;;4.10;;
54679;SDS011;40578;53.178;5.846;2023-09-19T15:43:55;12.60;;;4.15;;
54679;SDS011;40578;53.178;5.846;2023-09-19T15:46:21;12.05;;;3.83;;
54679;SDS011;40578;53.178;5.846;2023-09-19T15:48:47;12.82;;;3.28;;
54679;SDS011;40578;53.178;5.846;2023-09-19T15:51:13;9.90;;;3.20;;
54679;SDS011;40578;53.178;5.846;2023-09-19T15:53:43;13.15;;;4.40;;
54679;SDS011;40578;53.178;5.846;2023-09-19T15:56:10;12.30;;;4.38;;
54679;SDS011;40578;53.178;5.846;2023-09-19T15:58:37;14.18;;;4.50;;
54679;SDS011;40578;53.178;5.846;2023-09-19T16:01:07;13.68;;;4.72;;
54679;SDS011;40578;53.178;5.846;2023-09-19T16:03:39;10.38;;;3.97;;
54679;SDS011;40578;53.178;5.846;2023-09-19T16:06:16;17.17;;;5.18;;
54679;SDS011;40578;53.178;5.846;2023-09-19T16:08:45;13.20;;;4.70;;
54679;SDS011;40578;53.178;5.846;2023-09-19T16:11:15;13.40;;;4.18;;
54679;SDS011;40578;53.178;5.846;2023-09-19T16:13:41;13.23;;;5.13;;
54679;SDS011;40578;53.178;5.846;2023-09-19T16:16:08;12.13;;;4.38;;
54679;SDS011;40578;53.178;5.846;2023-09-19T16:18:37;13.85;;;4.57;;
54679;SDS011;40578;53.178;5.846;2023-09-19T16:21:04;16.33;;;4.63;;
54679;SDS011;40578;53.178;5.846;2023-09-19T16:23:33;13.63;;;4.40;;
54679;SDS011;40578;53.178;5.846;2023-09-19T16:28:37;14.85;;;5.00;;
54679;SDS011;40578;53.178;5.846;2023-09-19T16:31:03;12.57;;;4.07;;